Time;durP1;ratioP1;P1;durP2;ratioP2;P2;SDS_P1;SDS_P2;PMS_P1;PMS_P2;Temp;Humidity;BMP_temperature;BMP_pressure;BME280_temperature;BME280_humidity;BME280_pressure;Samples;Min_cycle;Max_cycle;Signal;HPM_P1;HPM_P2
2022/11/17 05:30:24;;;;;;;8.93;1.48;;;12.50;80.00;;;;;;6028937;23;20029;31
2022/11/17 05:32:49;;;;;;;9.50;1.85;;;12.50;80.00;;;;;;4885433;29;20041;-79
2022/11/17 05:35:18;;;;;;;5.13;1.85;;;12.60;80.00;;;;;;4886164;29;20033;-80
2022/11/17 05:37:43;;;;;;;8.10;1.33;;;12.60;79.80;;;;;;4884344;29;20033;-79
2022/11/17 05:40:09;;;;;;;4.65;1.25;;;12.60;79.80;;;;;;4883702;29;20477;-79
2022/11/17 05:42:35;;;;;;;4.93;1.60;;;12.60;79.60;;;;;;4884461;29;20028;-79
2022/11/17 05:45:01;;;;;;;6.60;1.73;;;12.60;80.10;;;;;;4884143;29;20108;-78
2022/11/17 05:47:26;;;;;;;5.78;1.35;;;12.60;79.80;;;;;;4883644;29;20108;-80
2022/11/17 05:49:52;;;;;;;5.88;1.27;;;12.60;79.80;;;;;;4883484;29;20069;-78
2022/11/17 05:52:17;;;;;;;10.30;2.38;;;12.70;79.80;;;;;;4883959;29;20071;-77
2022/11/17 05:54:43;;;;;;;6.10;1.90;;;12.70;79.90;;;;;;4883419;29;20025;-81
2022/11/17 05:57:15;;;;;;;16.08;2.20;;;12.70;80.00;;;;;;4898376;29;20047;-78
2022/11/17 05:59:42;;;;;;;6.80;1.67;;;12.70;79.90;;;;;;4883826;29;20021;-77
2022/11/17 06:02:22;;;;;;;7.47;1.92;;;12.70;80.20;;;;;;4896229;29;20621;-77
2022/11/17 06:04:50;;;;;;;6.90;1.83;;;12.70;80.20;;;;;;4880330;29;20031;-77
2022/11/17 06:07:16;;;;;;;14.10;2.00;;;12.70;80.60;;;;;;4884179;29;20029;-77
2022/11/17 06:09:42;;;;;;;6.68;1.15;;;12.60;80.30;;;;;;4884351;29;20032;-77
2022/11/17 06:12:10;;;;;;;9.13;2.40;;;12.60;80.30;;;;;;4883766;29;20033;-78
2022/11/17 06:14:38;;;;;;;16.17;2.78;;;12.50;80.20;;;;;;4884143;29;20029;-77
2022/11/17 06:17:08;;;;;;;11.48;1.65;;;12.40;80.30;;;;;;4883158;29;20489;-78
2022/11/17 06:19:39;;;;;;;10.93;3.78;;;12.30;80.50;;;;;;4913682;29;20040;-77
2022/11/17 06:22:04;;;;;;;;;;;12.40;80.40;;;;;;4884945;29;20025;-78
2022/11/17 06:24:32;;;;;;;7.38;1.60;;;12.30;80.20;;;;;;4883534;29;19915;-75
2022/11/17 06:26:57;;;;;;;11.60;2.20;;;12.30;80.40;;;;;;4884097;29;20153;-75
2022/11/17 06:29:24;;;;;;;9.30;1.63;;;12.30;80.30;;;;;;4883890;29;20048;-74
2022/11/17 06:31:49;;;;;;;6.93;2.72;;;12.30;80.40;;;;;;4883157;29;20432;-74
2022/11/17 06:34:15;;;;;;;4.47;1.05;;;12.20;80.50;;;;;;4883810;29;20033;-75
2022/11/17 06:36:41;;;;;;;6.47;1.38;;;12.20;80.40;;;;;;4883305;29;20052;-74
2022/11/17 06:39:06;;;;;;;2.70;0.90;;;12.10;80.60;;;;;;4883699;29;20520;-77
2022/11/17 06:41:32;;;;;;;6.93;1.50;;;12.00;80.00;;;;;;4879201;29;20037;-75
2022/11/17 06:43:58;;;;;;;6.75;1.40;;;12.00;80.20;;;;;;4865089;29;20033;-75
2022/11/17 06:46:23;;;;;;;4.47;1.35;;;12.10;80.20;;;;;;4878825;29;20064;-74
2022/11/17 06:48:49;;;;;;;5.13;1.13;;;12.00;80.00;;;;;;4883813;29;20494;-74
2022/11/17 06:51:15;;;;;;;5.03;1.33;;;12.00;80.00;;;;;;4883674;29;20068;-75
2022/11/17 06:53:40;;;;;;;4.85;1.15;;;11.90;79.90;;;;;;4883034;29;20033;-74
2022/11/17 06:56:10;;;;;;;1.98;0.77;;;11.90;80.10;;;;;;4883583;29;20032;-74
2022/11/17 06:58:37;;;;;;;3.55;1.27;;;11.90;79.50;;;;;;4881967;29;20516;-74
2022/11/17 07:01:09;;;;;;;4.85;1.05;;;11.90;79.60;;;;;;4883041;29;20030;-74
2022/11/17 07:03:37;;;;;;;2.60;0.95;;;11.90;79.70;;;;;;4883329;29;20112;-74
2022/11/17 07:06:04;;;;;;;4.18;0.80;;;11.90;79.50;;;;;;4913060;29;20045;-74
2022/11/17 07:08:30;;;;;;;7.70;1.48;;;11.90;79.50;;;;;;4881999;29;20018;-74
2022/11/17 07:11:01;;;;;;;4.07;0.98;;;11.80;79.60;;;;;;4882792;29;20573;-74
2022/11/17 07:13:27;;;;;;;3.47;1.10;;;11.80;80.10;;;;;;4883251;29;20661;-74
2022/11/17 07:15:52;;;;;;;4.38;1.38;;;11.90;80.20;;;;;;4883193;29;20089;-74
2022/11/17 07:18:19;;;;;;;9.02;1.98;;;11.80;80.20;;;;;;4882471;29;20022;-75
2022/11/17 07:20:45;;;;;;;5.72;0.93;;;11.80;80.30;;;;;;4883183;29;20029;-75
2022/11/17 07:23:12;;;;;;;2.10;1.10;;;11.80;80.10;;;;;;4880044;29;20025;-74
2022/11/17 07:25:37;;;;;;;3.88;1.23;;;11.80;80.60;;;;;;4881978;29;20108;-74
2022/11/17 07:28:03;;;;;;;3.55;0.95;;;11.80;80.50;;;;;;4881258;29;20068;-74
2022/11/17 07:30:29;;;;;;;6.35;0.90;;;11.80;80.70;;;;;;4882571;29;20064;-75
2022/11/17 07:32:58;;;;;;;3.50;0.95;;;11.80;80.60;;;;;;4882084;29;20033;-75
2022/11/17 07:35:23;;;;;;;6.28;1.10;;;11.80;80.60;;;;;;4897093;29;20036;-74
2022/11/17 07:37:49;;;;;;;4.65;1.02;;;11.80;80.60;;;;;;4882217;29;20037;-74
2022/11/17 07:40:15;;;;;;;4.20;1.02;;;11.80;80.50;;;;;;4881377;29;20084;-75
2022/11/17 07:42:40;;;;;;;2.08;0.88;;;11.90;80.40;;;;;;4882645;29;20040;-75
2022/11/17 07:45:06;;;;;;;4.75;1.23;;;11.80;80.50;;;;;;4881396;29;20029;-75
2022/11/17 07:47:32;;;;;;;4.30;1.52;;;11.80;80.50;;;;;;4882584;29;20156;-75
2022/11/17 07:49:57;;;;;;;1.10;0.65;;;11.80;80.60;;;;;;4881047;29;20516;-74
2022/11/17 07:52:23;;;;;;;14.27;1.30;;;11.80;80.60;;;;;;4882013;29;20561;-74
2022/11/17 07:54:49;;;;;;;4.75;1.33;;;11.80;80.80;;;;;;4882387;29;20439;-74
2022/11/17 07:57:14;;;;;;;6.80;1.08;;;11.90;80.70;;;;;;4882007;29;20028;-74
2022/11/17 07:59:40;;;;;;;4.95;0.88;;;11.90;80.80;;;;;;4896500;29;20025;-74
2022/11/17 08:02:07;;;;;;;4.72;1.00;;;11.90;80.90;;;;;;4882458;29;20033;-75
2022/11/17 08:04:33;;;;;;;6.13;1.60;;;11.90;80.80;;;;;;4896577;29;20111;-74
2022/11/17 08:06:58;;;;;;;4.07;1.20;;;11.90;80.80;;;;;;4882143;29;20064;-75
2022/11/17 08:09:24;;;;;;;6.18;1.27;;;11.90;80.80;;;;;;4882384;29;20057;-75
2022/11/17 08:11:50;;;;;;;7.80;1.65;;;11.90;80.90;;;;;;4882295;29;20040;-74
2022/11/17 08:14:16;;;;;;;2.22;1.13;;;12.00;80.90;;;;;;4880308;29;20397;-74
2022/11/17 08:16:41;;;;;;;2.00;1.30;;;12.00;80.90;;;;;;4881589;29;20125;-75
2022/11/17 08:19:10;;;;;;;6.55;1.25;;;12.00;81.00;;;;;;4882242;29;20025;-74
2022/11/17 08:21:36;;;;;;;3.92;1.40;;;11.90;81.10;;;;;;4912310;29;20044;-74
2022/11/17 08:24:02;;;;;;;6.57;1.48;;;12.00;81.00;;;;;;4880298;29;20025;-75
2022/11/17 08:26:27;;;;;;;2.92;1.10;;;12.00;80.90;;;;;;4882095;29;20104;-74
2022/11/17 08:28:53;;;;;;;2.65;0.90;;;12.10;81.00;;;;;;4881830;29;20520;-75
2022/11/17 08:31:19;;;;;;;2.72;0.85;;;12.10;80.80;;;;;;4881984;29;20076;-74
2022/11/17 08:33:44;;;;;;;1.38;0.77;;;12.10;81.00;;;;;;4881463;29;20037;-74
2022/11/17 08:36:10;;;;;;;5.18;1.30;;;12.10;81.10;;;;;;4881967;29;20037;-74
2022/11/17 08:38:36;;;;;;;4.45;1.23;;;12.10;81.20;;;;;;4880053;29;20061;-75
2022/11/17 08:41:05;;;;;;;8.90;1.25;;;12.20;81.20;;;;;;4881886;29;20809;-74
2022/11/17 08:43:31;;;;;;;2.40;1.15;;;12.20;81.10;;;;;;4895998;29;20096;-74
2022/11/17 08:45:56;;;;;;;3.92;1.33;;;12.20;81.00;;;;;;4881318;29;20116;-74
2022/11/17 08:48:24;;;;;;;2.60;1.10;;;12.20;81.10;;;;;;4881903;29;20036;-74
2022/11/17 08:50:50;;;;;;;5.63;1.20;;;12.30;81.00;;;;;;4881810;29;20025;-74
2022/11/17 08:53:20;;;;;;;5.50;1.40;;;12.30;81.00;;;;;;4881769;29;20037;-74
2022/11/17 08:55:46;;;;;;;4.32;1.35;;;12.30;80.80;;;;;;4882055;29;20029;-75
2022/11/17 08:58:12;;;;;;;13.50;2.45;;;12.30;80.60;;;;;;4885639;29;20394;-75
2022/11/17 09:00:38;;;;;;;7.88;1.25;;;12.30;80.60;;;;;;4884930;29;20111;-74
2022/11/17 09:03:09;;;;;;;5.95;1.48;;;12.40;80.50;;;;;;4885603;29;20021;-74
2022/11/17 09:05:39;;;;;;;9.50;1.30;;;12.40;80.60;;;;;;4884642;29;20085;-74
2022/11/17 09:08:05;;;;;;;3.05;1.30;;;12.50;80.50;;;;;;4885487;29;20060;-75
2022/11/17 09:10:31;;;;;;;6.97;1.40;;;12.50;80.60;;;;;;4895973;29;20136;-75
2022/11/17 09:12:57;;;;;;;9.10;1.58;;;12.60;80.40;;;;;;4887223;29;20144;-74
2022/11/17 09:15:23;;;;;;;3.83;1.15;;;12.70;80.40;;;;;;4885251;29;20029;-75
2022/11/17 09:17:49;;;;;;;5.00;1.40;;;12.70;80.30;;;;;;4884639;29;20029;-74
2022/11/17 09:20:16;;;;;;;6.35;1.20;;;12.80;80.00;;;;;;4884753;29;20037;-74
2022/11/17 09:22:42;;;;;;;5.28;1.65;;;12.80;79.90;;;;;;4885271;29;20025;-75
2022/11/17 09:25:08;;;;;;;3.92;1.55;;;12.80;79.80;;;;;;4884637;29;20037;-75
2022/11/17 09:27:34;;;;;;;6.28;1.38;;;12.90;79.80;;;;;;4885443;29;20029;-74
2022/11/17 09:30:00;;;;;;;4.47;1.65;;;13.00;79.70;;;;;;4884898;29;20097;-74
2022/11/17 09:32:25;;;;;;;9.60;2.45;;;13.10;79.70;;;;;;4884802;29;20482;-74
2022/11/17 09:34:51;;;;;;;6.82;1.52;;;13.10;79.40;;;;;;4884843;29;20029;-74
2022/11/17 09:37:17;;;;;;;3.67;1.17;;;13.10;79.60;;;;;;4884949;29;20070;-75
2022/11/17 09:39:42;;;;;;;8.38;1.60;;;13.20;79.40;;;;;;4884261;29;20036;-74
2022/11/17 09:42:13;;;;;;;5.47;1.52;;;13.20;79.30;;;;;;4885097;29;20029;-75
2022/11/17 09:44:46;;;;;;;10.18;1.80;;;13.30;79.40;;;;;;4884290;29;20142;-74
2022/11/17 09:47:24;;;;;;;6.03;1.20;;;13.30;79.20;;;;;;4884873;29;20514;-74
2022/11/17 09:50:02;;;;;;;8.98;1.40;;;13.40;78.70;;;;;;4884817;29;20047;-74
2022/11/17 09:52:27;;;;;;;3.28;0.90;;;13.60;78.70;;;;;;4884201;29;20028;-74
2022/11/17 09:55:00;;;;;;;7.03;1.75;;;13.70;78.40;;;;;;4884657;29;20088;-74
2022/11/17 09:57:47;;;;;;;9.18;1.65;;;13.90;77.80;;;;;;4884736;29;20135;-74
2022/11/17 10:00:15;;;;;;;4.85;1.48;;;14.00;76.80;;;;;;4883947;29;20085;-74
2022/11/17 10:02:41;;;;;;;4.50;1.05;;;14.00;77.20;;;;;;4884627;29;20029;-74
2022/11/17 10:05:15;;;;;;;9.55;1.30;;;14.00;77.20;;;;;;4884427;29;20021;-74
2022/11/17 10:07:52;;;;;;;4.70;2.13;;;13.90;77.20;;;;;;4882155;29;20064;-74
2022/11/17 10:10:26;;;;;;;8.73;1.70;;;13.90;77.30;;;;;;4881626;29;20383;-74
2022/11/17 10:12:57;;;;;;;3.67;1.08;;;13.90;76.60;;;;;;4884394;29;20480;-75
2022/11/17 10:15:28;;;;;;;4.32;0.90;;;13.90;76.50;;;;;;4883689;29;20064;-74
2022/11/17 10:17:53;;;;;;;4.85;1.33;;;13.80;76.50;;;;;;4898580;29;20037;-74
2022/11/17 10:20:19;;;;;;;3.75;0.80;;;13.80;76.90;;;;;;4883764;29;20032;-74
2022/11/17 10:22:46;;;;;;;8.23;1.10;;;13.90;76.90;;;;;;4884120;29;20025;-74
2022/11/17 10:25:36;;;;;;;4.63;1.58;;;13.90;76.20;;;;;;4883827;29;20032;-74
2022/11/17 10:28:02;;;;;;;;;;;14.00;76.40;;;;;;4884175;29;20066;-74
2022/11/17 10:30:28;;;;;;;4.57;1.00;;;14.00;76.00;;;;;;4883780;29;20470;-75
2022/11/17 10:32:57;;;;;;;3.42;1.08;;;14.30;76.00;;;;;;4882317;29;20044;-74
2022/11/17 10:35:25;;;;;;;2.15;0.95;;;14.30;75.00;;;;;;4883902;29;20041;-74
2022/11/17 10:37:59;;;;;;;4.10;1.08;;;14.20;75.40;;;;;;4883866;29;20021;-74
2022/11/17 10:40:28;;;;;;;2.80;0.57;;;14.20;74.90;;;;;;4882123;29;20068;-74
2022/11/17 10:43:21;;;;;;;6.35;0.95;;;14.20;74.60;;;;;;4884004;29;20025;-73
2022/11/17 10:45:52;;;;;;;5.63;0.93;;;14.30;74.90;;;;;;4880211;29;20036;-74
2022/11/17 10:48:20;;;;;;;3.67;0.93;;;14.50;74.60;;;;;;4883329;29;20120;-74
2022/11/17 10:50:58;;;;;;;4.93;1.48;;;14.50;74.70;;;;;;4883189;29;20041;-74
2022/11/17 10:53:27;;;;;;;5.80;2.00;;;14.50;74.40;;;;;;4882250;29;20037;-74
2022/11/17 10:55:57;;;;;;;6.05;0.90;;;14.70;73.90;;;;;;4898066;29;20408;-74
2022/11/17 10:58:26;;;;;;;5.45;1.27;;;14.70;74.00;;;;;;4883016;29;20072;-73
2022/11/17 11:01:03;;;;;;;6.50;1.35;;;14.70;73.60;;;;;;4883417;29;20482;-74
2022/11/17 11:03:32;;;;;;;7.38;1.30;;;14.70;73.80;;;;;;4883604;29;20565;-74
2022/11/17 11:06:17;;;;;;;8.30;1.35;;;14.70;73.80;;;;;;4882793;29;20044;-74
2022/11/17 11:08:55;;;;;;;3.67;1.27;;;14.60;73.60;;;;;;4882936;29;20025;-74
2022/11/17 11:12:00;;;;;;;3.55;1.20;;;14.50;73.60;;;;;;4913229;29;20037;-74
2022/11/17 11:14:42;;;;;;;6.60;1.85;;;14.40;73.90;;;;;;4868723;29;20042;-74
2022/11/17 11:17:13;;;;;;;3.13;0.65;;;14.40;74.30;;;;;;4877903;29;20032;-75
2022/11/17 11:19:41;;;;;;;2.88;0.80;;;14.40;74.00;;;;;;4887752;29;20037;-74
2022/11/17 11:22:43;;;;;;;7.03;1.20;;;14.40;74.10;;;;;;4883031;29;20025;-74
2022/11/17 11:25:16;;;;;;;4.88;0.95;;;14.50;73.80;;;;;;4910807;29;20100;-73
2022/11/17 11:27:54;;;;;;;2.88;1.02;;;14.60;73.70;;;;;;4883017;29;20557;-73
2022/11/17 11:30:20;;;;;;;3.17;1.10;;;14.70;73.60;;;;;;4882836;29;20029;-74
2022/11/17 11:32:45;;;;;;;8.38;1.30;;;14.80;73.70;;;;;;4881111;29;20080;-74
2022/11/17 11:35:42;;;;;;;3.30;1.05;;;14.80;73.70;;;;;;4882764;29;20029;-74
2022/11/17 11:38:29;;;;;;;1.58;0.70;;;14.90;73.20;;;;;;4882221;29;20498;-80
2022/11/17 11:41:12;;;;;;;4.47;1.27;;;15.00;72.70;;;;;;4882317;29;20482;-78
2022/11/17 11:43:44;;;;;;;5.25;0.77;;;15.00;71.90;;;;;;4882691;29;20461;-78
2022/11/17 11:46:43;;;;;;;3.85;0.73;;;14.90;71.70;;;;;;4881266;29;20040;-77
2022/11/17 11:49:25;;;;;;;4.13;0.57;;;15.00;71.60;;;;;;4882615;29;20032;-77
2022/11/17 11:51:51;;;;;;;2.45;0.63;;;15.20;71.80;;;;;;4879485;29;20501;-79
2022/11/17 11:54:43;;;;;;;1.90;0.60;;;15.50;71.30;;;;;;4894433;29;20108;-80
2022/11/17 11:57:12;;;;;;;6.53;0.80;;;15.60;69.40;;;;;;4856914;29;20426;-79
2022/11/17 11:59:49;;;;;;;4.65;0.90;;;15.70;69.60;;;;;;4881755;29;20105;-78
2022/11/17 12:02:42;;;;;;;2.50;0.73;;;15.80;69.60;;;;;;4880646;29;20048;-79
2022/11/17 12:05:20;;;;;;;4.45;0.70;;;15.70;68.70;;;;;;4882270;29;20029;-77
2022/11/17 12:07:55;;;;;;;7.30;0.90;;;15.70;69.50;;;;;;4880467;29;20037;-79
2022/11/17 12:10:35;;;;;;;3.95;0.63;;;15.60;69.40;;;;;;4882196;29;20104;-81
2022/11/17 12:13:03;;;;;;;1.73;0.75;;;15.50;68.90;;;;;;4880864;29;20180;-81
2022/11/17 12:15:31;;;;;;;1.70;0.55;;;15.50;69.60;;;;;;4877236;29;20036;-81
2022/11/17 12:18:17;;;;;;;3.85;0.70;;;15.50;69.30;;;;;;4877601;29;20131;-78
2022/11/17 12:20:55;;;;;;;3.33;0.70;;;15.50;69.00;;;;;;4863656;29;20029;-77
2022/11/17 12:23:52;;;;;;;2.92;0.85;;;15.60;69.30;;;;;;4878971;29;20052;-77
2022/11/17 12:26:26;;;;;;;4.18;0.88;;;15.70;69.40;;;;;;4881958;29;20029;-77
2022/11/17 12:29:20;;;;;;;2.25;0.57;;;15.60;69.40;;;;;;4881555;29;20073;-77
2022/11/17 12:31:48;;;;;;;3.15;0.98;;;15.40;69.60;;;;;;4881820;29;20057;-78
2022/11/17 12:34:32;;;;;;;3.15;0.60;;;15.30;70.50;;;;;;4881937;29;20036;-79
2022/11/17 12:37:16;;;;;;;3.35;0.90;;;15.20;70.70;;;;;;4880357;29;20111;-78
2022/11/17 12:40:00;;;;;;;4.15;0.98;;;15.10;71.30;;;;;;4881841;29;20044;-82
2022/11/17 12:42:27;;;;;;;3.97;1.10;;;15.10;72.10;;;;;;4881959;29;20062;-80
2022/11/17 12:45:04;;;;;;;1.70;0.60;;;15.00;72.00;;;;;;4880384;29;20033;-80
2022/11/17 12:47:33;;;;;;;4.45;1.17;;;15.00;72.10;;;;;;4880565;29;20037;-79
2022/11/17 12:49:58;;;;;;;4.93;1.45;;;15.00;71.90;;;;;;4911931;29;20077;-79
2022/11/17 12:52:33;;;;;;;1.95;0.77;;;15.00;72.00;;;;;;4881218;29;20488;-79
2022/11/17 12:55:38;;;;;;;3.88;0.85;;;15.00;71.10;;;;;;4881967;29;20069;-79
2022/11/17 12:58:29;;;;;;;5.53;0.95;;;15.00;71.00;;;;;;4857337;29;20046;-79
2022/11/17 13:01:04;;;;;;;2.45;0.77;;;15.00;71.70;;;;;;4863154;29;20033;-79
2022/11/17 13:03:56;;;;;;;5.25;1.40;;;15.10;71.70;;;;;;4879632;29;20021;-80
2022/11/17 13:06:22;;;;;;;6.72;0.90;;;15.10;71.50;;;;;;4881309;29;20032;-79
2022/11/17 13:08:59;;;;;;;5.22;1.02;;;15.00;71.40;;;;;;4881657;29;20044;-79
2022/11/17 13:11:26;;;;;;;2.42;1.02;;;15.00;70.80;;;;;;4895919;29;20029;-79
2022/11/17 13:14:14;;;;;;;3.20;0.90;;;15.00;71.50;;;;;;4876614;29;20041;-79
2022/11/17 13:16:49;;;;;;;5.55;1.10;;;14.90;71.10;;;;;;4863099;29;20053;-78
2022/11/17 13:19:41;;;;;;;2.40;0.57;;;14.90;71.60;;;;;;4880097;29;20037;-79
2022/11/17 13:22:20;;;;;;;4.20;0.88;;;14.80;71.50;;;;;;4879890;29;20048;-79
2022/11/17 13:24:47;;;;;;;7.03;1.38;;;14.80;71.40;;;;;;4895807;29;20021;-79
2022/11/17 13:27:25;;;;;;;3.55;1.10;;;14.80;71.90;;;;;;4881672;29;20036;-79
2022/11/17 13:30:10;;;;;;;5.45;0.80;;;14.70;71.40;;;;;;4881180;29;20039;-75
2022/11/17 13:32:38;;;;;;;2.47;0.70;;;14.70;72.00;;;;;;4880236;29;20092;-78
2022/11/17 13:35:18;;;;;;;1.35;0.75;;;14.70;72.10;;;;;;4881441;29;20029;-78
2022/11/17 13:37:43;;;;;;;2.92;0.77;;;14.70;71.90;;;;;;4880873;29;20033;-79
2022/11/17 13:40:21;;;;;;;4.15;0.77;;;14.70;72.50;;;;;;4881462;29;20045;-78
2022/11/17 13:42:47;;;;;;;7.40;1.20;;;14.70;72.90;;;;;;4883584;29;20025;-78
2022/11/17 13:45:14;;;;;;;6.40;1.00;;;14.60;72.60;;;;;;4884259;29;20393;-78
2022/11/17 13:47:44;;;;;;;4.65;1.08;;;14.70;72.10;;;;;;4884761;29;20469;-78
2022/11/17 13:50:25;;;;;;;;;;;14.70;72.40;;;;;;4899441;29;20032;-77
2022/11/17 13:52:55;;;;;;;3.20;0.80;;;14.70;72.20;;;;;;4898540;29;19934;-78
2022/11/17 13:55:22;;;;;;;;;;;14.70;71.80;;;;;;4885181;29;20033;-87
2022/11/17 13:57:59;;;;;;;2.28;0.85;;;14.70;71.80;;;;;;4884870;29;19918;-85
2022/11/17 14:00:25;;;;;;;3.20;0.75;;;14.70;71.60;;;;;;4884163;29;20553;-85
2022/11/17 14:02:53;;;;;;;4.03;1.02;;;14.70;71.10;;;;;;4884710;29;20150;-85
2022/11/17 14:05:21;;;;;;;4.93;0.90;;;14.70;71.30;;;;;;4884068;29;20028;-83
2022/11/17 14:07:48;;;;;;;2.63;0.90;;;14.70;70.60;;;;;;4883079;29;20096;-83
2022/11/17 14:10:20;;;;;;;3.65;0.85;;;14.60;69.70;;;;;;4898224;29;20124;-85
2022/11/17 14:12:49;;;;;;;1.50;0.55;;;14.50;69.10;;;;;;4864477;29;20037;-86
2022/11/17 14:15:25;;;;;;;2.83;0.90;;;14.50;69.10;;;;;;4876492;29;20033;-85
2022/11/17 14:17:53;;;;;;;1.17;0.80;;;14.60;69.30;;;;;;4884124;29;20037;-85
2022/11/17 14:20:25;;;;;;;2.60;0.98;;;14.50;68.30;;;;;;4883924;29;20032;-86
2022/11/17 14:23:09;;;;;;;2.42;0.80;;;14.40;69.00;;;;;;4884288;29;20036;-85
2022/11/17 14:25:43;;;;;;;1.65;0.60;;;14.30;68.20;;;;;;4882429;29;20053;-86
2022/11/17 14:28:21;;;;;;;1.17;0.52;;;14.30;69.30;;;;;;4882742;29;20037;-86
2022/11/17 14:30:51;;;;;;;1.50;0.88;;;14.30;69.70;;;;;;4883646;29;20504;-86
2022/11/17 14:33:17;;;;;;;3.65;0.85;;;14.20;70.00;;;;;;4884141;29;20497;-86
2022/11/17 14:35:45;;;;;;;2.95;0.93;;;14.30;70.10;;;;;;4883615;29;20037;-86
2022/11/17 14:38:14;;;;;;;1.25;0.80;;;14.20;70.10;;;;;;4883865;29;20037;-86
2022/11/17 14:40:40;;;;;;;2.97;0.88;;;14.20;70.50;;;;;;4898343;29;20029;-85
2022/11/17 14:43:06;;;;;;;3.25;0.90;;;14.10;70.20;;;;;;4883426;29;20036;-86
2022/11/17 14:45:34;;;;;;;2.63;0.60;;;14.20;70.80;;;;;;4883910;29;20025;-86
2022/11/17 14:48:01;;;;;;;2.65;0.77;;;14.10;70.90;;;;;;4882429;29;20040;-86
2022/11/17 14:50:27;;;;;;;1.13;0.60;;;14.10;71.60;;;;;;4898288;29;20037;-86
2022/11/17 14:52:53;;;;;;;5.72;0.90;;;14.20;72.00;;;;;;4897498;29;20116;-85
2022/11/17 14:55:20;;;;;;;2.97;1.13;;;14.20;72.00;;;;;;4883673;29;20068;-86
2022/11/17 14:57:46;;;;;;;1.45;0.80;;;14.00;72.20;;;;;;4883234;29;20058;-85
2022/11/17 15:00:13;;;;;;;4.00;1.10;;;14.10;72.50;;;;;;4882970;29;20147;-86
2022/11/17 15:02:39;;;;;;;3.03;1.05;;;14.10;72.70;;;;;;4883608;29;20033;-86
2022/11/17 15:05:06;;;;;;;2.35;1.05;;;14.10;72.80;;;;;;4897729;29;20025;-86
2022/11/17 15:07:32;;;;;;;1.83;0.68;;;14.00;73.10;;;;;;4883009;29;20048;-86
2022/11/17 15:09:58;;;;;;;3.30;0.93;;;14.00;73.40;;;;;;4883538;29;20025;-86
2022/11/17 15:12:25;;;;;;;3.28;0.90;;;14.00;73.20;;;;;;4883419;29;20401;-86
2022/11/17 15:14:50;;;;;;;3.53;1.25;;;14.00;73.30;;;;;;4897507;29;20033;-87
2022/11/17 15:17:16;;;;;;;1.73;0.93;;;13.90;74.00;;;;;;4882883;29;20052;-86
2022/11/17 15:19:42;;;;;;;1.38;0.93;;;13.90;73.90;;;;;;4897467;29;20036;-86
2022/11/17 15:22:08;;;;;;;3.70;1.15;;;13.90;74.30;;;;;;4881661;29;20033;-86
2022/11/17 15:24:34;;;;;;;3.65;1.00;;;13.90;74.30;;;;;;4883168;29;20122;-85
2022/11/17 15:26:59;;;;;;;4.53;1.40;;;13.80;74.50;;;;;;4882672;29;20089;-86
2022/11/17 15:29:25;;;;;;;3.13;1.80;;;13.90;74.80;;;;;;4882874;29;20041;-86
2022/11/17 15:31:50;;;;;;;5.32;1.20;;;13.70;75.00;;;;;;4896979;29;20160;-86
2022/11/17 15:34:16;;;;;;;3.35;0.95;;;13.70;75.40;;;;;;4882832;29;20549;-86
2022/11/17 15:36:42;;;;;;;5.45;1.15;;;13.70;75.70;;;;;;4882529;29;20572;-85
2022/11/17 15:39:07;;;;;;;5.35;1.08;;;13.60;75.70;;;;;;4881439;29;20037;-85
2022/11/17 15:41:33;;;;;;;7.13;1.50;;;13.60;75.40;;;;;;4897266;29;20108;-86
2022/11/17 15:43:59;;;;;;;8.52;2.22;;;13.60;76.10;;;;;;4882220;29;20033;-86
2022/11/17 15:46:25;;;;;;;4.47;1.60;;;13.60;76.10;;;;;;4882764;29;20096;-85
2022/11/17 15:48:51;;;;;;;1.55;1.13;;;13.70;76.10;;;;;;4882684;29;20236;-85
2022/11/17 15:51:19;;;;;;;4.57;1.90;;;13.60;76.10;;;;;;4912489;29;20123;-85
2022/11/17 15:53:46;;;;;;;5.97;1.65;;;13.60;76.20;;;;;;4882661;29;20044;-85
2022/11/17 15:56:26;;;;;;;4.07;1.17;;;13.60;76.30;;;;;;4896405;29;20029;-86
2022/11/17 15:59:02;;;;;;;2.30;1.08;;;13.60;76.60;;;;;;4882432;29;20036;-86
2022/11/17 16:01:31;;;;;;;3.72;1.20;;;13.50;76.40;;;;;;4911987;29;20048;-86
2022/11/17 16:04:02;;;;;;;3.72;1.10;;;13.50;76.30;;;;;;4882309;29;20417;-86
2022/11/17 16:06:30;;;;;;;4.78;1.13;;;13.50;76.60;;;;;;4881842;29;20421;-85
2022/11/17 16:08:56;;;;;;;3.58;1.50;;;13.50;76.40;;;;;;4896585;29;20054;-86
2022/11/17 16:11:23;;;;;;;2.35;0.73;;;13.40;76.50;;;;;;4874398;29;20033;-86
2022/11/17 16:13:54;;;;;;;4.70;1.13;;;13.40;76.30;;;;;;4881814;29;20037;-86
2022/11/17 16:16:21;;;;;;;3.58;1.27;;;13.40;76.40;;;;;;4912265;29;20136;-86
2022/11/17 16:18:46;;;;;;;2.95;1.55;;;13.30;76.30;;;;;;4881875;29;20029;-86
2022/11/17 16:21:14;;;;;;;3.03;1.65;;;13.30;75.90;;;;;;4880951;29;20036;-86
2022/11/17 16:24:02;;;;;;;8.85;1.95;;;13.30;76.30;;;;;;4882320;29;20033;-86
2022/11/17 16:26:28;;;;;;;2.25;1.38;;;13.20;75.90;;;;;;4899368;29;20165;-86
2022/11/17 16:29:04;;;;;;;6.18;2.33;;;13.20;75.90;;;;;;4881593;29;20033;-86
2022/11/17 16:31:31;;;;;;;8.68;2.83;;;13.20;76.00;;;;;;4885067;29;20426;-86
2022/11/17 16:33:59;;;;;;;4.25;2.13;;;13.20;75.60;;;;;;4895883;29;20513;-86
2022/11/17 16:36:30;;;;;;;4.03;2.28;;;13.20;75.60;;;;;;4883909;29;20067;-85
2022/11/17 16:38:57;;;;;;;3.15;1.73;;;13.20;75.70;;;;;;4882584;29;20426;-85
2022/11/17 16:41:26;;;;;;;5.68;1.80;;;13.20;75.30;;;;;;4882078;29;20473;-86
2022/11/17 16:43:52;;;;;;;3.63;1.63;;;13.20;75.50;;;;;;4884679;29;20028;-86
2022/11/17 16:46:25;;;;;;;2.88;1.40;;;13.20;75.50;;;;;;4881680;29;20029;-86
2022/11/17 16:48:52;;;;;;;3.53;1.50;;;13.20;75.60;;;;;;4913933;29;20195;-76
2022/11/17 16:51:19;;;;;;;1.60;1.30;;;13.10;75.20;;;;;;4881274;29;20033;-76
2022/11/17 16:53:49;;;;;;;3.97;1.60;;;13.10;75.20;;;;;;4881075;29;20073;-77
2022/11/17 16:56:15;;;;;;;2.90;1.20;;;13.00;75.40;;;;;;4880911;29;20524;-78
2022/11/17 16:58:41;;;;;;;1.55;1.00;;;12.90;75.50;;;;;;4878690;29;20044;-76
2022/11/17 17:01:15;;;;;;;2.67;1.15;;;12.90;75.50;;;;;;4878273;29;20029;-76
2022/11/17 17:03:41;;;;;;;2.47;1.27;;;12.90;75.60;;;;;;4900064;29;20021;-76
2022/11/17 17:06:09;;;;;;;2.67;1.10;;;12.80;75.50;;;;;;4881062;29;20029;-76
2022/11/17 17:08:35;;;;;;;3.90;1.35;;;12.90;75.80;;;;;;4877468;29;20032;-77
2022/11/17 17:11:03;;;;;;;3.00;1.55;;;12.90;75.90;;;;;;4879433;29;20029;-75
2022/11/17 17:13:28;;;;;;;2.40;1.02;;;12.80;75.60;;;;;;4910083;29;20021;-76
2022/11/17 17:15:54;;;;;;;4.55;1.48;;;12.80;75.90;;;;;;4875441;29;20573;-75
2022/11/17 17:18:19;;;;;;;1.92;1.15;;;12.80;76.00;;;;;;4877577;29;20052;-76
2022/11/17 17:20:51;;;;;;;2.47;1.15;;;12.80;76.10;;;;;;4881953;29;20057;-75
2022/11/17 17:23:17;;;;;;;2.60;1.20;;;12.80;76.00;;;;;;4882936;29;20040;-76
2022/11/17 17:25:43;;;;;;;1.23;0.98;;;12.80;76.00;;;;;;4883521;29;20028;-75
2022/11/17 17:28:09;;;;;;;2.72;1.63;;;12.80;76.20;;;;;;4883378;29;20029;-77
2022/11/17 17:30:34;;;;;;;4.20;1.50;;;12.80;76.30;;;;;;4883381;29;20576;-76
2022/11/17 17:33:00;;;;;;;3.80;1.73;;;12.70;76.00;;;;;;4883258;29;20048;-77
2022/11/17 17:35:26;;;;;;;1.90;1.30;;;12.70;76.20;;;;;;4883604;29;20032;-76
2022/11/17 17:37:51;;;;;;;8.15;1.70;;;12.70;75.60;;;;;;4882883;29;20040;-78
2022/11/17 17:40:17;;;;;;;3.60;1.58;;;12.70;75.70;;;;;;4880315;29;20033;-77
2022/11/17 17:42:42;;;;;;;1.83;1.40;;;12.70;75.90;;;;;;4881294;29;20060;-79
2022/11/17 17:45:08;;;;;;;6.63;1.75;;;12.60;75.90;;;;;;4884245;29;20032;-77
2022/11/17 17:47:34;;;;;;;4.10;1.63;;;12.60;75.90;;;;;;4885026;29;20565;-76
2022/11/17 17:49:59;;;;;;;2.15;1.60;;;12.60;76.10;;;;;;4883170;29;20028;-79
2022/11/17 17:52:25;;;;;;;3.53;1.45;;;12.60;75.80;;;;;;4880975;29;20030;-78
2022/11/17 17:54:51;;;;;;;2.63;1.42;;;12.50;76.00;;;;;;4883509;29;20029;-75
2022/11/17 17:57:16;;;;;;;1.92;1.23;;;12.60;75.80;;;;;;4885091;29;20033;-82
2022/11/17 17:59:42;;;;;;;5.07;1.35;;;12.60;75.90;;;;;;4898391;29;20032;-80
2022/11/17 18:02:08;;;;;;;2.17;1.20;;;12.70;75.80;;;;;;4884623;29;20036;-80
2022/11/17 18:04:34;;;;;;;1.25;1.00;;;12.60;75.60;;;;;;4885008;29;20528;-81
2022/11/17 18:07:00;;;;;;;2.13;1.23;;;12.60;75.40;;;;;;4884200;29;20029;-77
2022/11/17 18:09:26;;;;;;;3.28;1.17;;;12.60;74.90;;;;;;4829565;29;20102;-78
2022/11/17 18:11:51;;;;;;;4.20;1.42;;;12.50;75.40;;;;;;4880388;29;20040;-77
2022/11/17 18:14:22;;;;;;;1.85;1.27;;;12.40;74.90;;;;;;4883404;29;20093;-78
2022/11/17 18:16:49;;;;;;;5.00;1.92;;;12.40;74.80;;;;;;4882101;29;20097;-77
2022/11/17 18:19:15;;;;;;;3.20;1.30;;;12.30;75.40;;;;;;4841940;29;20041;-77
2022/11/17 18:21:42;;;;;;;4.50;1.48;;;12.30;75.60;;;;;;4881331;29;20058;-77
2022/11/17 18:24:09;;;;;;;2.97;1.50;;;12.30;75.30;;;;;;4882027;29;20033;-77
2022/11/17 18:26:35;;;;;;;1.83;1.30;;;12.30;75.40;;;;;;4882434;29;20028;-75
2022/11/17 18:29:07;;;;;;;3.53;1.90;;;12.20;75.70;;;;;;4877171;29;20406;-80
2022/11/17 18:31:34;;;;;;;2.40;1.58;;;12.20;75.80;;;;;;4882669;29;20049;-79